sensor_id;sensor_type;location;lat;lon;timestamp;P1;durP1;ratioP1;P2;durP2;ratioP2
19016;SDS011;9641;51.494;6.670;2022-09-04T00:02:25;2.03;;;1.73;;
19016;SDS011;9641;51.494;6.670;2022-09-04T00:05:07;2.07;;;1.87;;
19016;SDS011;9641;51.494;6.670;2022-09-04T00:07:50;2.03;;;1.83;;
19016;SDS011;9641;51.494;6.670;2022-09-04T00:10:25;3.83;;;2.13;;
19016;SDS011;9641;51.494;6.670;2022-09-04T00:12:58;2.90;;;1.90;;
19016;SDS011;9641;51.494;6.670;2022-09-04T00:15:31;2.83;;;2.10;;
19016;SDS011;9641;51.494;6.670;2022-09-04T00:18:04;2.60;;;1.80;;
19016;SDS011;9641;51.494;6.670;2022-09-04T00:20:37;2.90;;;2.20;;
19016;SDS011;9641;51.494;6.670;2022-09-04T00:23:09;3.23;;;2.10;;
19016;SDS011;9641;51.494;6.670;2022-09-04T00:25:45;2.67;;;2.00;;
19016;SDS011;9641;51.494;6.670;2022-09-04T00:28:18;2.20;;;2.00;;
19016;SDS011;9641;51.494;6.670;2022-09-04T00:30:58;3.03;;;2.13;;
19016;SDS011;9641;51.494;6.670;2022-09-04T00:33:31;2.53;;;2.20;;
19016;SDS011;9641;51.494;6.670;2022-09-04T00:36:07;2.43;;;2.23;;
19016;SDS011;9641;51.494;6.670;2022-09-04T00:38:39;3.00;;;2.27;;
19016;SDS011;9641;51.494;6.670;2022-09-04T00:41:12;2.80;;;2.53;;
19016;SDS011;9641;51.494;6.670;2022-09-04T00:44:00;2.40;;;2.10;;
19016;SDS011;9641;51.494;6.670;2022-09-04T00:46:43;3.47;;;2.50;;
19016;SDS011;9641;51.494;6.670;2022-09-04T00:52:35;3.13;;;2.50;;
19016;SDS011;9641;51.494;6.670;2022-09-04T00:55:22;6.53;;;2.50;;
19016;SDS011;9641;51.494;6.670;2022-09-04T00:58:06;2.80;;;2.50;;
19016;SDS011;9641;51.494;6.670;2022-09-04T01:00:40;2.80;;;2.40;;
19016;SDS011;9641;51.494;6.670;2022-09-04T01:03:14;2.57;;;2.37;;
19016;SDS011;9641;51.494;6.670;2022-09-04T01:06:11;2.70;;;2.40;;
19016;SDS011;9641;51.494;6.670;2022-09-04T01:09:00;7.07;;;2.73;;
19016;SDS011;9641;51.494;6.670;2022-09-04T01:11:48;3.37;;;2.53;;
19016;SDS011;9641;51.494;6.670;2022-09-04T01:14:28;3.77;;;2.60;;
19016;SDS011;9641;51.494;6.670;2022-09-04T01:17:07;4.97;;;2.70;;
19016;SDS011;9641;51.494;6.670;2022-09-04T01:19:45;2.97;;;2.67;;
19016;SDS011;9641;51.494;6.670;2022-09-04T01:22:23;3.33;;;2.77;;
19016;SDS011;9641;51.494;6.670;2022-09-04T01:25:03;3.20;;;2.40;;
19016;SDS011;9641;51.494;6.670;2022-09-04T01:27:41;6.80;;;3.13;;
19016;SDS011;9641;51.494;6.670;2022-09-04T01:30:15;6.30;;;3.20;;
19016;SDS011;9641;51.494;6.670;2022-09-04T01:32:47;3.90;;;3.00;;
19016;SDS011;9641;51.494;6.670;2022-09-04T01:35:24;3.80;;;2.57;;
19016;SDS011;9641;51.494;6.670;2022-09-04T01:38:01;4.47;;;3.03;;
19016;SDS011;9641;51.494;6.670;2022-09-04T01:40:37;3.90;;;2.70;;
19016;SDS011;9641;51.494;6.670;2022-09-04T01:43:10;3.60;;;2.93;;
19016;SDS011;9641;51.494;6.670;2022-09-04T01:48:41;2.90;;;2.70;;
19016;SDS011;9641;51.494;6.670;2022-09-04T01:51:17;3.33;;;2.50;;
19016;SDS011;9641;51.494;6.670;2022-09-04T01:53:55;3.17;;;2.80;;
19016;SDS011;9641;51.494;6.670;2022-09-04T01:56:33;2.80;;;2.50;;
19016;SDS011;9641;51.494;6.670;2022-09-04T01:59:10;3.73;;;2.43;;
19016;SDS011;9641;51.494;6.670;2022-09-04T02:01:44;4.07;;;2.60;;
19016;SDS011;9641;51.494;6.670;2022-09-04T02:04:18;3.17;;;2.63;;
19016;SDS011;9641;51.494;6.670;2022-09-04T02:06:55;4.13;;;2.37;;
19016;SDS011;9641;51.494;6.670;2022-09-04T02:09:30;3.13;;;2.83;;
19016;SDS011;9641;51.494;6.670;2022-09-04T02:12:05;3.10;;;2.73;;
19016;SDS011;9641;51.494;6.670;2022-09-04T02:14:42;2.87;;;2.67;;
19016;SDS011;9641;51.494;6.670;2022-09-04T02:17:16;6.13;;;3.30;;
19016;SDS011;9641;51.494;6.670;2022-09-04T02:19:56;3.40;;;2.80;;
19016;SDS011;9641;51.494;6.670;2022-09-04T02:22:35;4.00;;;3.33;;
19016;SDS011;9641;51.494;6.670;2022-09-04T02:25:13;3.70;;;3.00;;
19016;SDS011;9641;51.494;6.670;2022-09-04T02:27:53;3.73;;;3.00;;
19016;SDS011;9641;51.494;6.670;2022-09-04T02:30:34;5.77;;;3.70;;
19016;SDS011;9641;51.494;6.670;2022-09-04T02:33:06;4.57;;;3.47;;
19016;SDS011;9641;51.494;6.670;2022-09-04T02:35:41;3.87;;;3.23;;
19016;SDS011;9641;51.494;6.670;2022-09-04T02:38:14;3.87;;;3.47;;
19016;SDS011;9641;51.494;6.670;2022-09-04T02:40:50;5.37;;;2.90;;
19016;SDS011;9641;51.494;6.670;2022-09-04T02:43:32;3.50;;;3.20;;
19016;SDS011;9641;51.494;6.670;2022-09-04T02:46:11;5.70;;;3.30;;
19016;SDS011;9641;51.494;6.670;2022-09-04T02:48:46;3.13;;;2.83;;
19016;SDS011;9641;51.494;6.670;2022-09-04T02:51:25;4.73;;;3.40;;
19016;SDS011;9641;51.494;6.670;2022-09-04T02:54:06;4.53;;;3.87;;
19016;SDS011;9641;51.494;6.670;2022-09-04T02:56:38;4.10;;;3.27;;
19016;SDS011;9641;51.494;6.670;2022-09-04T02:59:15;4.60;;;3.47;;
19016;SDS011;9641;51.494;6.670;2022-09-04T03:01:55;6.17;;;3.30;;
19016;SDS011;9641;51.494;6.670;2022-09-04T03:04:26;4.33;;;3.33;;
19016;SDS011;9641;51.494;6.670;2022-09-04T03:07:00;4.47;;;3.47;;
19016;SDS011;9641;51.494;6.670;2022-09-04T03:09:35;4.77;;;3.90;;
19016;SDS011;9641;51.494;6.670;2022-09-04T03:12:10;4.67;;;3.93;;
19016;SDS011;9641;51.494;6.670;2022-09-04T03:14:50;5.00;;;3.50;;
19016;SDS011;9641;51.494;6.670;2022-09-04T03:17:26;4.00;;;3.60;;
19016;SDS011;9641;51.494;6.670;2022-09-04T03:20:01;4.23;;;3.83;;
19016;SDS011;9641;51.494;6.670;2022-09-04T03:22:35;3.87;;;3.43;;
19016;SDS011;9641;51.494;6.670;2022-09-04T03:25:22;4.63;;;3.57;;
19016;SDS011;9641;51.494;6.670;2022-09-04T03:28:00;5.77;;;4.50;;
19016;SDS011;9641;51.494;6.670;2022-09-04T03:30:27;5.50;;;4.10;;
19016;SDS011;9641;51.494;6.670;2022-09-04T03:33:03;5.67;;;4.47;;
19016;SDS011;9641;51.494;6.670;2022-09-04T03:35:39;4.90;;;4.40;;
19016;SDS011;9641;51.494;6.670;2022-09-04T03:38:17;5.97;;;4.43;;
19016;SDS011;9641;51.494;6.670;2022-09-04T03:40:49;4.90;;;4.00;;
19016;SDS011;9641;51.494;6.670;2022-09-04T03:43:34;5.87;;;4.53;;
19016;SDS011;9641;51.494;6.670;2022-09-04T03:46:19;5.33;;;4.20;;
19016;SDS011;9641;51.494;6.670;2022-09-04T03:49:00;5.90;;;3.90;;
19016;SDS011;9641;51.494;6.670;2022-09-04T03:51:37;5.97;;;4.13;;
19016;SDS011;9641;51.494;6.670;2022-09-04T03:54:20;5.20;;;3.97;;
19016;SDS011;9641;51.494;6.670;2022-09-04T03:57:14;6.20;;;4.23;;
19016;SDS011;9641;51.494;6.670;2022-09-04T03:59:58;7.93;;;4.47;;
19016;SDS011;9641;51.494;6.670;2022-09-04T04:02:43;5.53;;;4.53;;
19016;SDS011;9641;51.494;6.670;2022-09-04T04:05:41;6.93;;;4.13;;
19016;SDS011;9641;51.494;6.670;2022-09-04T04:08:24;5.27;;;4.27;;
19016;SDS011;9641;51.494;6.670;2022-09-04T04:11:04;5.57;;;4.20;;
19016;SDS011;9641;51.494;6.670;2022-09-04T04:13:52;6.37;;;4.63;;
19016;SDS011;9641;51.494;6.670;2022-09-04T04:16:40;6.13;;;4.73;;
19016;SDS011;9641;51.494;6.670;2022-09-04T04:22:24;8.67;;;4.13;;
19016;SDS011;9641;51.494;6.670;2022-09-04T04:25:18;10.07;;;4.87;;
19016;SDS011;9641;51.494;6.670;2022-09-04T04:27:59;7.67;;;4.80;;
19016;SDS011;9641;51.494;6.670;2022-09-04T04:30:42;6.00;;;4.83;;
19016;SDS011;9641;51.494;6.670;2022-09-04T04:36:11;7.27;;;5.50;;
19016;SDS011;9641;51.494;6.670;2022-09-04T04:38:50;8.17;;;5.30;;
19016;SDS011;9641;51.494;6.670;2022-09-04T04:41:37;10.77;;;6.27;;
19016;SDS011;9641;51.494;6.670;2022-09-04T04:44:36;15.00;;;7.10;;
19016;SDS011;9641;51.494;6.670;2022-09-04T04:50:45;5.47;;;4.30;;
19016;SDS011;9641;51.494;6.670;2022-09-04T04:53:23;10.37;;;4.87;;
19016;SDS011;9641;51.494;6.670;2022-09-04T04:55:58;9.03;;;4.87;;
19016;SDS011;9641;51.494;6.670;2022-09-04T04:58:35;9.03;;;4.77;;
19016;SDS011;9641;51.494;6.670;2022-09-04T05:01:19;9.13;;;4.93;;
19016;SDS011;9641;51.494;6.670;2022-09-04T05:04:02;10.33;;;4.97;;
19016;SDS011;9641;51.494;6.670;2022-09-04T05:06:37;12.00;;;5.30;;
19016;SDS011;9641;51.494;6.670;2022-09-04T05:09:10;12.97;;;5.73;;
19016;SDS011;9641;51.494;6.670;2022-09-04T05:11:46;15.80;;;7.07;;
19016;SDS011;9641;51.494;6.670;2022-09-04T05:14:23;12.73;;;6.47;;
19016;SDS011;9641;51.494;6.670;2022-09-04T05:17:03;14.20;;;6.30;;
19016;SDS011;9641;51.494;6.670;2022-09-04T05:19:38;10.00;;;5.27;;
19016;SDS011;9641;51.494;6.670;2022-09-04T05:22:13;10.17;;;5.37;;
19016;SDS011;9641;51.494;6.670;2022-09-04T05:24:48;12.57;;;5.63;;
19016;SDS011;9641;51.494;6.670;2022-09-04T05:30:27;7.63;;;5.60;;
19016;SDS011;9641;51.494;6.670;2022-09-04T05:33:02;11.30;;;5.73;;
19016;SDS011;9641;51.494;6.670;2022-09-04T05:35:37;18.83;;;9.77;;
19016;SDS011;9641;51.494;6.670;2022-09-04T05:38:12;20.30;;;11.17;;
19016;SDS011;9641;51.494;6.670;2022-09-04T05:40:49;17.17;;;8.47;;
19016;SDS011;9641;51.494;6.670;2022-09-04T05:43:29;11.40;;;7.17;;
19016;SDS011;9641;51.494;6.670;2022-09-04T05:46:10;9.67;;;6.30;;
19016;SDS011;9641;51.494;6.670;2022-09-04T05:48:44;10.87;;;6.90;;
19016;SDS011;9641;51.494;6.670;2022-09-04T05:51:41;11.47;;;7.30;;
19016;SDS011;9641;51.494;6.670;2022-09-04T05:54:26;14.70;;;7.63;;
19016;SDS011;9641;51.494;6.670;2022-09-04T05:57:18;14.10;;;7.70;;
19016;SDS011;9641;51.494;6.670;2022-09-04T06:00:06;26.37;;;10.23;;
19016;SDS011;9641;51.494;6.670;2022-09-04T06:05:49;11.00;;;7.10;;
19016;SDS011;9641;51.494;6.670;2022-09-04T06:08:32;8.90;;;5.47;;
19016;SDS011;9641;51.494;6.670;2022-09-04T06:11:24;8.77;;;5.30;;
19016;SDS011;9641;51.494;6.670;2022-09-04T06:14:06;9.80;;;5.13;;
19016;SDS011;9641;51.494;6.670;2022-09-04T06:16:43;7.53;;;5.00;;
19016;SDS011;9641;51.494;6.670;2022-09-04T06:19:35;9.63;;;5.47;;
19016;SDS011;9641;51.494;6.670;2022-09-04T06:22:18;9.40;;;5.23;;
19016;SDS011;9641;51.494;6.670;2022-09-04T06:25:15;9.97;;;5.73;;
19016;SDS011;9641;51.494;6.670;2022-09-04T06:28:06;11.60;;;5.83;;
19016;SDS011;9641;51.494;6.670;2022-09-04T06:30:44;8.87;;;4.77;;
19016;SDS011;9641;51.494;6.670;2022-09-04T06:33:25;9.63;;;5.40;;
19016;SDS011;9641;51.494;6.670;2022-09-04T06:36:08;10.30;;;5.07;;
19016;SDS011;9641;51.494;6.670;2022-09-04T06:39:03;6.70;;;4.93;;
19016;SDS011;9641;51.494;6.670;2022-09-04T06:41:44;8.83;;;4.97;;
19016;SDS011;9641;51.494;6.670;2022-09-04T06:44:26;9.03;;;4.93;;
19016;SDS011;9641;51.494;6.670;2022-09-04T06:47:04;7.67;;;4.80;;
19016;SDS011;9641;51.494;6.670;2022-09-04T06:49:47;11.00;;;5.23;;
19016;SDS011;9641;51.494;6.670;2022-09-04T06:52:28;11.27;;;5.13;;
19016;SDS011;9641;51.494;6.670;2022-09-04T06:55:05;8.83;;;5.13;;
19016;SDS011;9641;51.494;6.670;2022-09-04T06:57:47;10.50;;;4.33;;
19016;SDS011;9641;51.494;6.670;2022-09-04T07:00:25;10.43;;;5.20;;
19016;SDS011;9641;51.494;6.670;2022-09-04T07:03:02;7.93;;;5.10;;
19016;SDS011;9641;51.494;6.670;2022-09-04T07:05:53;7.03;;;4.90;;
19016;SDS011;9641;51.494;6.670;2022-09-04T07:08:31;11.00;;;4.90;;
19016;SDS011;9641;51.494;6.670;2022-09-04T07:11:13;8.40;;;5.03;;
19016;SDS011;9641;51.494;6.670;2022-09-04T07:16:45;8.77;;;4.67;;
19016;SDS011;9641;51.494;6.670;2022-09-04T07:19:27;9.53;;;4.80;;
19016;SDS011;9641;51.494;6.670;2022-09-04T07:22:10;9.02;;;4.85;;
19016;SDS011;9641;51.494;6.670;2022-09-04T07:24:55;6.50;;;4.50;;
19016;SDS011;9641;51.494;6.670;2022-09-04T07:27:35;9.90;;;5.03;;
19016;SDS011;9641;51.494;6.670;2022-09-04T07:30:13;8.10;;;4.50;;
19016;SDS011;9641;51.494;6.670;2022-09-04T07:32:47;6.47;;;3.80;;
19016;SDS011;9641;51.494;6.670;2022-09-04T07:35:21;6.93;;;4.30;;
19016;SDS011;9641;51.494;6.670;2022-09-04T07:37:55;5.73;;;3.80;;
19016;SDS011;9641;51.494;6.670;2022-09-04T07:40:31;5.78;;;3.90;;
19016;SDS011;9641;51.494;6.670;2022-09-04T07:43:04;5.40;;;3.50;;
19016;SDS011;9641;51.494;6.670;2022-09-04T07:45:37;7.05;;;3.53;;
19016;SDS011;9641;51.494;6.670;2022-09-04T07:48:15;5.85;;;3.40;;
19016;SDS011;9641;51.494;6.670;2022-09-04T07:50:56;6.18;;;2.95;;
19016;SDS011;9641;51.494;6.670;2022-09-04T07:53:42;4.85;;;3.50;;
19016;SDS011;9641;51.494;6.670;2022-09-04T07:56:33;5.32;;;3.33;;
19016;SDS011;9641;51.494;6.670;2022-09-04T07:59:23;4.13;;;3.10;;
19016;SDS011;9641;51.494;6.670;2022-09-04T08:02:16;6.72;;;3.40;;
19016;SDS011;9641;51.494;6.670;2022-09-04T08:10:55;4.95;;;3.47;;
19016;SDS011;9641;51.494;6.670;2022-09-04T08:16:43;7.38;;;3.38;;
19016;SDS011;9641;51.494;6.670;2022-09-04T08:19:30;7.43;;;3.70;;
19016;SDS011;9641;51.494;6.670;2022-09-04T08:22:07;8.93;;;3.45;;
19016;SDS011;9641;51.494;6.670;2022-09-04T08:24:54;8.52;;;3.15;;
19016;SDS011;9641;51.494;6.670;2022-09-04T08:27:42;7.30;;;3.35;;
19016;SDS011;9641;51.494;6.670;2022-09-04T08:30:24;7.47;;;3.38;;
19016;SDS011;9641;51.494;6.670;2022-09-04T08:33:14;7.35;;;3.30;;
19016;SDS011;9641;51.494;6.670;2022-09-04T08:35:51;6.95;;;3.15;;
19016;SDS011;9641;51.494;6.670;2022-09-04T08:38:25;8.65;;;3.50;;
19016;SDS011;9641;51.494;6.670;2022-09-04T08:41:20;5.63;;;3.20;;
19016;SDS011;9641;51.494;6.670;2022-09-04T08:47:12;6.95;;;3.10;;
19016;SDS011;9641;51.494;6.670;2022-09-04T08:50:11;6.35;;;2.90;;
19016;SDS011;9641;51.494;6.670;2022-09-04T08:53:07;4.90;;;2.50;;
19016;SDS011;9641;51.494;6.670;2022-09-04T08:56:15;4.28;;;2.85;;
19016;SDS011;9641;51.494;6.670;2022-09-04T08:58:54;6.15;;;3.40;;
19016;SDS011;9641;51.494;6.670;2022-09-04T09:08:03;5.47;;;2.88;;
19016;SDS011;9641;51.494;6.670;2022-09-04T09:11:07;3.17;;;2.55;;
19016;SDS011;9641;51.494;6.670;2022-09-04T09:16:50;4.18;;;2.78;;
19016;SDS011;9641;51.494;6.670;2022-09-04T09:19:35;4.47;;;2.40;;
19016;SDS011;9641;51.494;6.670;2022-09-04T09:22:14;3.70;;;2.53;;
19016;SDS011;9641;51.494;6.670;2022-09-04T09:25:15;4.60;;;2.58;;
19016;SDS011;9641;51.494;6.670;2022-09-04T09:40:16;5.97;;;2.80;;
19016;SDS011;9641;51.494;6.670;2022-09-04T09:43:00;4.10;;;2.22;;
19016;SDS011;9641;51.494;6.670;2022-09-04T09:52:13;3.72;;;2.40;;
19016;SDS011;9641;51.494;6.670;2022-09-04T10:01:40;6.28;;;2.80;;
19016;SDS011;9641;51.494;6.670;2022-09-04T10:04:25;4.20;;;2.20;;
19016;SDS011;9641;51.494;6.670;2022-09-04T10:07:26;3.10;;;2.25;;
19016;SDS011;9641;51.494;6.670;2022-09-04T10:10:39;2.70;;;2.10;;
19016;SDS011;9641;51.494;6.670;2022-09-04T10:13:25;4.00;;;2.40;;
19016;SDS011;9641;51.494;6.670;2022-09-04T10:19:17;4.78;;;2.20;;
19016;SDS011;9641;51.494;6.670;2022-09-04T10:22:31;3.50;;;2.22;;
19016;SDS011;9641;51.494;6.670;2022-09-04T10:25:22;6.47;;;2.38;;
19016;SDS011;9641;51.494;6.670;2022-09-04T10:28:13;2.53;;;1.80;;
19016;SDS011;9641;51.494;6.670;2022-09-04T10:34:13;3.40;;;2.20;;
19016;SDS011;9641;51.494;6.670;2022-09-04T10:36:56;6.72;;;1.90;;
19016;SDS011;9641;51.494;6.670;2022-09-04T10:39:33;1.80;;;1.60;;
19016;SDS011;9641;51.494;6.670;2022-09-04T10:42:34;3.28;;;2.13;;
19016;SDS011;9641;51.494;6.670;2022-09-04T10:45:19;2.55;;;1.77;;
19016;SDS011;9641;51.494;6.670;2022-09-04T10:48:07;3.58;;;1.90;;
19016;SDS011;9641;51.494;6.670;2022-09-04T10:54:17;2.97;;;2.60;;
19016;SDS011;9641;51.494;6.670;2022-09-04T10:57:14;2.58;;;2.10;;
19016;SDS011;9641;51.494;6.670;2022-09-04T11:00:00;2.30;;;2.03;;
19016;SDS011;9641;51.494;6.670;2022-09-04T11:05:34;3.58;;;1.80;;
19016;SDS011;9641;51.494;6.670;2022-09-04T11:08:22;2.17;;;1.98;;
19016;SDS011;9641;51.494;6.670;2022-09-04T11:11:04;3.28;;;1.98;;
19016;SDS011;9641;51.494;6.670;2022-09-04T11:14:00;4.28;;;2.05;;
19016;SDS011;9641;51.494;6.670;2022-09-04T11:16:57;2.90;;;1.70;;
19016;SDS011;9641;51.494;6.670;2022-09-04T11:20:00;3.65;;;1.50;;
19016;SDS011;9641;51.494;6.670;2022-09-04T11:26:07;1.67;;;1.52;;
19016;SDS011;9641;51.494;6.670;2022-09-04T11:29:09;1.58;;;1.40;;
19016;SDS011;9641;51.494;6.670;2022-09-04T11:34:55;2.50;;;1.65;;
19016;SDS011;9641;51.494;6.670;2022-09-04T11:37:53;1.83;;;1.70;;
19016;SDS011;9641;51.494;6.670;2022-09-04T11:43:34;2.25;;;1.70;;
19016;SDS011;9641;51.494;6.670;2022-09-04T11:49:32;2.92;;;1.00;;
19016;SDS011;9641;51.494;6.670;2022-09-04T11:52:15;2.58;;;1.55;;
19016;SDS011;9641;51.494;6.670;2022-09-04T12:00:49;2.10;;;1.60;;
19016;SDS011;9641;51.494;6.670;2022-09-04T12:06:23;1.40;;;1.30;;
19016;SDS011;9641;51.494;6.670;2022-09-04T12:09:13;1.98;;;1.52;;
19016;SDS011;9641;51.494;6.670;2022-09-04T12:15:07;2.22;;;1.70;;
19016;SDS011;9641;51.494;6.670;2022-09-04T12:18:07;1.23;;;1.23;;
19016;SDS011;9641;51.494;6.670;2022-09-04T12:21:01;2.22;;;1.38;;
19016;SDS011;9641;51.494;6.670;2022-09-04T12:23:50;1.65;;;1.35;;
19016;SDS011;9641;51.494;6.670;2022-09-04T12:29:53;1.95;;;1.30;;
19016;SDS011;9641;51.494;6.670;2022-09-04T12:32:53;3.45;;;1.20;;
19016;SDS011;9641;51.494;6.670;2022-09-04T12:39:13;2.30;;;1.27;;
19016;SDS011;9641;51.494;6.670;2022-09-04T12:42:00;2.15;;;1.42;;
19016;SDS011;9641;51.494;6.670;2022-09-04T12:44:36;1.00;;;1.00;;
19016;SDS011;9641;51.494;6.670;2022-09-04T12:47:18;2.47;;;1.52;;
19016;SDS011;9641;51.494;6.670;2022-09-04T12:50:12;1.90;;;1.23;;
19016;SDS011;9641;51.494;6.670;2022-09-04T12:52:52;1.73;;;1.30;;
19016;SDS011;9641;51.494;6.670;2022-09-04T12:55:33;3.17;;;1.50;;
19016;SDS011;9641;51.494;6.670;2022-09-04T12:58:11;1.52;;;1.40;;
19016;SDS011;9641;51.494;6.670;2022-09-04T13:00:47;2.22;;;1.30;;
19016;SDS011;9641;51.494;6.670;2022-09-04T13:03:26;0.98;;;0.88;;
19016;SDS011;9641;51.494;6.670;2022-09-04T13:08:54;0.95;;;0.80;;
19016;SDS011;9641;51.494;6.670;2022-09-04T13:11:32;0.75;;;0.63;;
19016;SDS011;9641;51.494;6.670;2022-09-04T13:17:23;4.95;;;0.90;;
19016;SDS011;9641;51.494;6.670;2022-09-04T13:20:02;1.05;;;0.95;;
19016;SDS011;9641;51.494;6.670;2022-09-04T13:22:43;1.20;;;0.70;;
19016;SDS011;9641;51.494;6.670;2022-09-04T13:25:20;0.95;;;0.80;;
19016;SDS011;9641;51.494;6.670;2022-09-04T13:28:04;1.88;;;1.05;;
19016;SDS011;9641;51.494;6.670;2022-09-04T13:30:44;1.33;;;0.80;;
19016;SDS011;9641;51.494;6.670;2022-09-04T13:33:29;0.80;;;0.80;;
19016;SDS011;9641;51.494;6.670;2022-09-04T13:36:10;1.75;;;0.80;;
19016;SDS011;9641;51.494;6.670;2022-09-04T13:38:54;2.20;;;0.80;;
19016;SDS011;9641;51.494;6.670;2022-09-04T13:45:01;0.60;;;0.60;;
19016;SDS011;9641;51.494;6.670;2022-09-04T13:47:37;0.57;;;0.52;;
19016;SDS011;9641;51.494;6.670;2022-09-04T13:50:15;1.90;;;0.65;;
19016;SDS011;9641;51.494;6.670;2022-09-04T13:52:48;1.70;;;0.90;;
19016;SDS011;9641;51.494;6.670;2022-09-04T13:55:21;0.90;;;0.80;;
19016;SDS011;9641;51.494;6.670;2022-09-04T13:57:53;1.20;;;0.60;;
19016;SDS011;9641;51.494;6.670;2022-09-04T14:00:26;1.85;;;0.70;;
19016;SDS011;9641;51.494;6.670;2022-09-04T14:02:57;0.68;;;0.68;;
19016;SDS011;9641;51.494;6.670;2022-09-04T14:05:32;1.02;;;0.65;;
19016;SDS011;9641;51.494;6.670;2022-09-04T14:08:03;0.88;;;0.85;;
19016;SDS011;9641;51.494;6.670;2022-09-04T14:10:42;2.70;;;0.93;;
19016;SDS011;9641;51.494;6.670;2022-09-04T14:13:25;1.25;;;0.90;;
19016;SDS011;9641;51.494;6.670;2022-09-04T14:16:03;0.70;;;0.70;;
19016;SDS011;9641;51.494;6.670;2022-09-04T14:18:42;0.70;;;0.70;;
19016;SDS011;9641;51.494;6.670;2022-09-04T14:21:28;0.63;;;0.63;;
19016;SDS011;9641;51.494;6.670;2022-09-04T14:24:08;0.88;;;0.60;;
19016;SDS011;9641;51.494;6.670;2022-09-04T14:26:47;2.15;;;0.70;;
19016;SDS011;9641;51.494;6.670;2022-09-04T14:29:23;0.70;;;0.70;;
19016;SDS011;9641;51.494;6.670;2022-09-04T14:31:59;1.55;;;0.50;;
19016;SDS011;9641;51.494;6.670;2022-09-04T14:34:36;1.45;;;0.73;;
19016;SDS011;9641;51.494;6.670;2022-09-04T14:37:15;0.70;;;0.70;;
19016;SDS011;9641;51.494;6.670;2022-09-04T14:39:54;0.70;;;0.70;;
19016;SDS011;9641;51.494;6.670;2022-09-04T14:42:35;1.02;;;0.82;;
19016;SDS011;9641;51.494;6.670;2022-09-04T14:45:23;1.23;;;0.85;;
19016;SDS011;9641;51.494;6.670;2022-09-04T14:48:15;0.70;;;0.70;;
19016;SDS011;9641;51.494;6.670;2022-09-04T14:50:48;4.38;;;0.80;;
19016;SDS011;9641;51.494;6.670;2022-09-04T14:53:19;0.93;;;0.63;;
19016;SDS011;9641;51.494;6.670;2022-09-04T14:56:12;0.65;;;0.65;;
19016;SDS011;9641;51.494;6.670;2022-09-04T14:58:51;0.70;;;0.60;;
19016;SDS011;9641;51.494;6.670;2022-09-04T15:01:24;0.95;;;0.90;;
19016;SDS011;9641;51.494;6.670;2022-09-04T15:03:54;0.90;;;0.82;;
19016;SDS011;9641;51.494;6.670;2022-09-04T15:06:29;1.77;;;0.80;;
19016;SDS011;9641;51.494;6.670;2022-09-04T15:09:20;0.70;;;0.70;;
19016;SDS011;9641;51.494;6.670;2022-09-04T15:11:50;1.45;;;0.85;;
19016;SDS011;9641;51.494;6.670;2022-09-04T15:14:22;0.82;;;0.82;;
19016;SDS011;9641;51.494;6.670;2022-09-04T15:16:57;1.80;;;0.98;;
19016;SDS011;9641;51.494;6.670;2022-09-04T15:19:31;2.45;;;0.82;;
19016;SDS011;9641;51.494;6.670;2022-09-04T15:22:12;0.80;;;0.80;;
19016;SDS011;9641;51.494;6.670;2022-09-04T15:24:49;1.17;;;0.90;;
19016;SDS011;9641;51.494;6.670;2022-09-04T15:27:23;0.80;;;0.80;;
19016;SDS011;9641;51.494;6.670;2022-09-04T15:30:02;0.88;;;0.88;;
19016;SDS011;9641;51.494;6.670;2022-09-04T15:32:34;1.33;;;0.70;;
19016;SDS011;9641;51.494;6.670;2022-09-04T15:35:07;0.85;;;0.85;;
19016;SDS011;9641;51.494;6.670;2022-09-04T15:37:40;0.90;;;0.90;;
19016;SDS011;9641;51.494;6.670;2022-09-04T15:40:12;0.80;;;0.80;;
19016;SDS011;9641;51.494;6.670;2022-09-04T15:42:51;1.02;;;0.90;;
19016;SDS011;9641;51.494;6.670;2022-09-04T15:45:30;1.50;;;1.08;;
19016;SDS011;9641;51.494;6.670;2022-09-04T15:48:08;0.93;;;0.65;;
19016;SDS011;9641;51.494;6.670;2022-09-04T15:53:39;3.33;;;0.95;;
19016;SDS011;9641;51.494;6.670;2022-09-04T15:56:25;0.80;;;0.80;;
19016;SDS011;9641;51.494;6.670;2022-09-04T15:59:03;1.45;;;0.90;;
19016;SDS011;9641;51.494;6.670;2022-09-04T16:01:41;1.10;;;1.02;;
19016;SDS011;9641;51.494;6.670;2022-09-04T16:04:15;1.13;;;1.08;;
19016;SDS011;9641;51.494;6.670;2022-09-04T16:06:48;2.15;;;0.90;;
19016;SDS011;9641;51.494;6.670;2022-09-04T16:09:19;4.15;;;1.00;;
19016;SDS011;9641;51.494;6.670;2022-09-04T16:11:56;1.17;;;1.00;;
19016;SDS011;9641;51.494;6.670;2022-09-04T16:14:32;1.33;;;0.93;;
19016;SDS011;9641;51.494;6.670;2022-09-04T16:17:09;0.80;;;0.80;;
19016;SDS011;9641;51.494;6.670;2022-09-04T16:19:40;1.30;;;1.00;;
19016;SDS011;9641;51.494;6.670;2022-09-04T16:22:18;1.77;;;1.15;;
19016;SDS011;9641;51.494;6.670;2022-09-04T16:24:53;1.35;;;1.25;;
19016;SDS011;9641;51.494;6.670;2022-09-04T16:27:47;0.80;;;0.80;;
19016;SDS011;9641;51.494;6.670;2022-09-04T16:30:37;0.88;;;0.88;;
19016;SDS011;9641;51.494;6.670;2022-09-04T16:33:18;1.17;;;1.00;;
19016;SDS011;9641;51.494;6.670;2022-09-04T16:35:58;1.67;;;0.73;;
19016;SDS011;9641;51.494;6.670;2022-09-04T16:38:56;0.98;;;0.88;;
19016;SDS011;9641;51.494;6.670;2022-09-04T16:41:51;1.40;;;0.80;;
19016;SDS011;9641;51.494;6.670;2022-09-04T16:44:21;1.90;;;1.33;;
19016;SDS011;9641;51.494;6.670;2022-09-04T16:47:03;1.95;;;1.15;;
19016;SDS011;9641;51.494;6.670;2022-09-04T16:49:48;1.30;;;1.20;;
19016;SDS011;9641;51.494;6.670;2022-09-04T16:52:44;4.20;;;1.27;;
19016;SDS011;9641;51.494;6.670;2022-09-04T16:55:24;0.88;;;0.82;;
19016;SDS011;9641;51.494;6.670;2022-09-04T16:58:15;0.90;;;0.90;;
19016;SDS011;9641;51.494;6.670;2022-09-04T17:00:54;1.17;;;1.08;;
19016;SDS011;9641;51.494;6.670;2022-09-04T17:03:27;1.00;;;0.90;;
19016;SDS011;9641;51.494;6.670;2022-09-04T17:06:07;1.65;;;0.82;;
19016;SDS011;9641;51.494;6.670;2022-09-04T17:08:46;2.90;;;1.13;;
19016;SDS011;9641;51.494;6.670;2022-09-04T17:11:19;2.55;;;1.00;;
19016;SDS011;9641;51.494;6.670;2022-09-04T17:13:56;1.20;;;1.10;;
19016;SDS011;9641;51.494;6.670;2022-09-04T17:16:30;1.20;;;0.93;;
19016;SDS011;9641;51.494;6.670;2022-09-04T17:19:01;1.10;;;1.00;;
19016;SDS011;9641;51.494;6.670;2022-09-04T17:21:33;1.20;;;1.10;;
19016;SDS011;9641;51.494;6.670;2022-09-04T17:24:24;2.60;;;1.00;;
19016;SDS011;9641;51.494;6.670;2022-09-04T17:26:54;1.20;;;1.10;;
19016;SDS011;9641;51.494;6.670;2022-09-04T17:29:25;1.33;;;1.23;;
19016;SDS011;9641;51.494;6.670;2022-09-04T17:32:03;4.13;;;1.27;;
19016;SDS011;9641;51.494;6.670;2022-09-04T17:34:46;2.28;;;1.23;;
19016;SDS011;9641;51.494;6.670;2022-09-04T17:37:19;1.70;;;1.08;;
19016;SDS011;9641;51.494;6.670;2022-09-04T17:39:53;1.10;;;1.00;;
19016;SDS011;9641;51.494;6.670;2022-09-04T17:42:26;2.22;;;1.98;;
19016;SDS011;9641;51.494;6.670;2022-09-04T17:45:02;1.52;;;1.30;;
19016;SDS011;9641;51.494;6.670;2022-09-04T17:47:38;3.05;;;1.58;;
19016;SDS011;9641;51.494;6.670;2022-09-04T17:50:08;3.63;;;1.67;;
19016;SDS011;9641;51.494;6.670;2022-09-04T17:52:54;1.80;;;1.10;;
19016;SDS011;9641;51.494;6.670;2022-09-04T17:55:24;1.40;;;1.30;;
19016;SDS011;9641;51.494;6.670;2022-09-04T17:57:54;2.00;;;1.17;;
19016;SDS011;9641;51.494;6.670;2022-09-04T18:00:27;1.92;;;1.50;;
19016;SDS011;9641;51.494;6.670;2022-09-04T18:03:00;7.30;;;1.50;;
19016;SDS011;9641;51.494;6.670;2022-09-04T18:05:33;1.58;;;1.48;;
19016;SDS011;9641;51.494;6.670;2022-09-04T18:08:07;1.90;;;1.75;;
19016;SDS011;9641;51.494;6.670;2022-09-04T18:10:47;2.83;;;1.67;;
19016;SDS011;9641;51.494;6.670;2022-09-04T18:13:20;5.40;;;2.30;;
19016;SDS011;9641;51.494;6.670;2022-09-04T18:15:53;2.13;;;1.92;;
19016;SDS011;9641;51.494;6.670;2022-09-04T18:18:27;1.80;;;1.52;;
19016;SDS011;9641;51.494;6.670;2022-09-04T18:21:07;6.20;;;2.60;;
19016;SDS011;9641;51.494;6.670;2022-09-04T18:23:46;8.27;;;4.07;;
19016;SDS011;9641;51.494;6.670;2022-09-04T18:26:22;4.88;;;2.20;;
19016;SDS011;9641;51.494;6.670;2022-09-04T18:28:54;2.10;;;1.90;;
19016;SDS011;9641;51.494;6.670;2022-09-04T18:31:27;3.30;;;2.00;;